Time;durP1;ratioP1;P1;durP2;ratioP2;P2;SDS_P1;SDS_P2;PMS_P1;PMS_P2;Temp;Humidity;BMP_temperature;BMP_pressure;BME280_temperature;BME280_humidity;BME280_pressure;Samples;Min_cycle;Max_cycle;Signal;HPM_P1;HPM_P2
2022/05/09 07:11:56;;;;;;;8.10;3.95;;;18.30;99.90;;;;;;5007128;23;20085;-85
2022/05/09 07:14:22;;;;;;;3.85;3.53;;;18.40;99.90;;;;;;5001676;28;20068;-85
2022/05/09 07:16:48;;;;;;;3.85;3.55;;;18.40;99.90;;;;;;5012866;28;20037;-85
2022/05/09 07:19:15;;;;;;;4.03;3.67;;;18.50;99.90;;;;;;5012832;28;20383;-86
2022/05/09 07:21:41;;;;;;;4.00;3.70;;;18.50;99.90;;;;;;5012880;28;20026;-85
2022/05/09 07:24:07;;;;;;;4.40;4.03;;;18.60;99.90;;;;;;4995258;28;20116;-85
2022/05/09 07:26:34;;;;;;;6.68;4.30;;;18.60;99.90;;;;;;5011400;28;20033;-85
2022/05/09 07:28:59;;;;;;;4.25;3.83;;;18.60;99.90;;;;;;5012574;28;20379;-85
2022/05/09 07:31:25;;;;;;;4.82;4.13;;;18.50;99.90;;;;;;5011289;28;20034;-85
2022/05/09 07:33:51;;;;;;;4.57;4.00;;;18.60;99.90;;;;;;5012325;28;20050;-85
2022/05/09 07:36:17;;;;;;;5.53;4.35;;;18.50;99.90;;;;;;5012454;28;20026;-85
2022/05/09 07:38:43;;;;;;;7.05;4.10;;;18.60;99.90;;;;;;4995616;28;20023;-85
2022/05/09 07:41:09;;;;;;;9.25;4.50;;;18.60;99.90;;;;;;4992613;28;20117;-86
2022/05/09 07:43:35;;;;;;;5.65;4.35;;;18.60;99.90;;;;;;4991531;28;20038;-85
2022/05/09 07:46:01;;;;;;;7.20;4.10;;;18.60;99.90;;;;;;4976632;28;20500;-86
2022/05/09 07:48:29;;;;;;;5.55;3.92;;;18.60;99.90;;;;;;5006217;28;20034;-86
2022/05/09 07:50:56;;;;;;;6.28;3.63;;;18.60;99.90;;;;;;5011791;28;20035;-85
2022/05/09 07:53:25;;;;;;;6.90;3.38;;;18.70;99.90;;;;;;5011273;28;20084;-85
2022/05/09 07:55:51;;;;;;;5.35;4.25;;;18.60;99.90;;;;;;5015861;28;20376;-85
2022/05/09 07:58:18;;;;;;;3.50;3.28;;;18.70;99.90;;;;;;5015864;28;20026;-85
2022/05/09 08:00:45;;;;;;;5.20;3.20;;;18.80;99.90;;;;;;5015658;28;20097;-86
2022/05/09 08:03:33;;;;;;;3.88;3.58;;;18.90;99.90;;;;;;5015481;28;20033;-85
2022/05/09 08:06:02;;;;;;;6.38;3.97;;;18.90;99.90;;;;;;5014299;28;20386;-84
2022/05/09 08:08:29;;;;;;;4.00;3.70;;;18.90;99.90;;;;;;5015459;28;20037;-85
2022/05/09 08:10:59;;;;;;;3.92;3.58;;;18.90;99.90;;;;;;4997846;28;20018;-84
2022/05/09 08:13:28;;;;;;;4.03;3.70;;;18.90;99.90;;;;;;5003709;28;20344;-84
2022/05/09 08:15:54;;;;;;;5.38;3.97;;;19.00;99.90;;;;;;4995763;28;20419;-84
2022/05/09 08:18:21;;;;;;;9.77;4.00;;;19.10;99.90;;;;;;4995862;28;20210;-84
2022/05/09 08:20:48;;;;;;;5.60;3.60;;;19.20;99.90;;;;;;4995867;28;20106;-83
2022/05/09 08:23:18;;;;;;;7.47;3.80;;;19.30;99.90;;;;;;4996010;28;20034;-84
2022/05/09 08:25:49;;;;;;;6.57;3.05;;;19.40;99.90;;;;;;4995757;28;20022;-83
2022/05/09 08:28:17;;;;;;;6.77;3.63;;;19.50;99.90;;;;;;4994575;28;20029;-83
2022/05/09 08:30:44;;;;;;;3.85;3.47;;;19.50;99.50;;;;;;4978028;28;20277;-83
2022/05/09 08:33:17;;;;;;;3.85;3.53;;;19.60;97.40;;;;;;4995662;28;20554;-83
2022/05/09 08:35:49;;;;;;;4.95;3.40;;;19.60;97.10;;;;;;4978405;28;20025;-84
2022/05/09 08:38:15;;;;;;;;;;;19.50;98.40;;;;;;4979039;28;20029;-84
2022/05/09 08:41:09;;;;;;;4.75;3.30;;;19.50;98.60;;;;;;4978526;28;20004;-84
2022/05/09 08:44:09;;;;;;;6.18;3.45;;;19.50;99.50;;;;;;4995998;28;20034;-84
2022/05/09 08:47:04;;;;;;;4.97;3.38;;;19.50;99.20;;;;;;4995601;28;20096;-84
2022/05/09 08:50:07;;;;;;;3.72;3.42;;;19.70;97.60;;;;;;4958889;28;20122;-83
2022/05/09 08:52:42;;;;;;;4.80;3.97;;;19.70;99.50;;;;;;4976250;28;20499;-80
2022/05/09 08:55:10;;;;;;;6.13;4.00;;;19.70;99.90;;;;;;4976103;28;20074;-80
2022/05/09 08:57:50;;;;;;;9.43;3.28;;;19.90;99.80;;;;;;4976244;28;20038;-80
2022/05/09 09:00:18;;;;;;;4.47;3.20;;;19.90;98.90;;;;;;4974862;28;20026;-81
2022/05/09 09:03:09;;;;;;;7.90;3.17;;;20.00;99.00;;;;;;4976159;28;20038;-80
2022/05/09 09:05:39;;;;;;;6.63;3.20;;;20.10;96.00;;;;;;4961974;28;20039;-81
2022/05/09 09:08:33;;;;;;;3.90;3.25;;;20.00;95.20;;;;;;4974952;28;20045;-80
2022/05/09 09:11:10;;;;;;;3.42;3.08;;;20.00;96.30;;;;;;4976115;28;20115;-81
2022/05/09 09:13:36;;;;;;;4.05;3.65;;;19.90;96.70;;;;;;4987194;28;20077;-80
2022/05/09 09:16:22;;;;;;;6.40;3.70;;;20.10;97.50;;;;;;4993297;28;20058;-80
2022/05/09 09:18:55;;;;;;;3.67;3.38;;;20.10;97.60;;;;;;4991743;28;20034;-81
2022/05/09 09:21:21;;;;;;;6.55;3.40;;;20.20;97.40;;;;;;4993061;28;20073;-81
2022/05/09 09:24:05;;;;;;;4.05;3.65;;;20.20;98.40;;;;;;4993208;28;20030;-81
2022/05/09 09:27:03;;;;;;;8.60;3.55;;;20.20;98.70;;;;;;4993495;28;20088;-81
2022/05/09 09:29:34;;;;;;;4.55;3.75;;;20.20;98.50;;;;;;4991840;28;20133;-80
2022/05/09 09:32:09;;;;;;;3.97;3.67;;;20.40;96.60;;;;;;4993565;28;20030;-81
2022/05/09 09:34:40;;;;;;;4.63;3.63;;;20.40;96.60;;;;;;4972539;28;20348;-80
2022/05/09 09:37:09;;;;;;;4.60;3.40;;;20.40;98.40;;;;;;4989994;28;20015;-81
2022/05/09 09:39:35;;;;;;;3.95;3.47;;;20.50;98.20;;;;;;4993134;28;20037;-81
2022/05/09 09:42:00;;;;;;;3.65;3.33;;;20.70;97.80;;;;;;4991780;28;20026;-81
2022/05/09 09:44:28;;;;;;;9.10;4.15;;;20.60;96.40;;;;;;4992973;28;20026;-81
2022/05/09 09:47:24;;;;;;;5.03;3.70;;;20.70;98.70;;;;;;4991835;28;20026;-81
2022/05/09 09:50:12;;;;;;;4.80;3.97;;;21.00;98.60;;;;;;4993115;28;20181;-81
2022/05/09 09:52:55;;;;;;;5.53;4.10;;;21.10;96.10;;;;;;4991772;28;20018;-81
2022/05/09 09:55:33;;;;;;;4.75;3.53;;;21.10;96.10;;;;;;4991732;28;20435;-81
2022/05/09 09:58:22;;;;;;;5.43;3.50;;;21.20;97.70;;;;;;4991528;28;20035;-81
2022/05/09 10:01:05;;;;;;;9.15;4.07;;;21.20;97.60;;;;;;4991416;28;20464;-81
2022/05/09 10:03:33;;;;;;;4.07;3.60;;;21.10;95.60;;;;;;4992713;28;20034;-81
2022/05/09 10:05:59;;;;;;;4.50;3.40;;;21.00;94.70;;;;;;4992773;28;20030;-81
2022/05/09 10:08:35;;;;;;;4.35;3.70;;;21.00;97.40;;;;;;4991490;28;20026;-81
2022/05/09 10:11:05;;;;;;;4.53;3.75;;;21.00;97.00;;;;;;4971706;28;20031;-81
2022/05/09 10:13:46;;;;;;;4.38;3.70;;;21.00;95.70;;;;;;4992509;28;20117;-81
2022/05/09 10:16:26;;;;;;;6.10;4.43;;;21.00;94.60;;;;;;4991682;28;20416;-81
2022/05/09 10:18:52;;;;;;;5.07;4.57;;;21.20;95.20;;;;;;4992349;28;20026;-80
2022/05/09 10:24:47;;;;;;;5.80;4.00;;;21.30;96.00;;;;;;4992757;28;20563;-81
2022/05/09 10:27:28;;;;;;;6.90;4.00;;;21.10;96.70;;;;;;4991098;28;20026;-81
2022/05/09 10:29:57;;;;;;;8.45;4.05;;;21.00;96.70;;;;;;4992114;28;20027;-80
2022/05/09 10:32:38;;;;;;;5.05;4.15;;;21.00;97.20;;;;;;4992089;28;20496;-81
2022/05/09 10:35:33;;;;;;;6.20;3.55;;;21.10;95.70;;;;;;4992104;28;20080;-83
2022/05/09 10:38:07;;;;;;;4.20;3.78;;;21.10;96.30;;;;;;4971549;28;20118;-80
2022/05/09 10:40:48;;;;;;;4.97;4.32;;;21.30;95.60;;;;;;5030686;28;20029;-81
2022/05/09 10:43:28;;;;;;;4.70;4.20;;;21.50;95.50;;;;;;5029900;28;20041;-80
2022/05/09 10:45:54;;;;;;;4.30;4.00;;;21.60;94.50;;;;;;5009476;28;20052;-81
2022/05/09 10:48:34;;;;;;;6.70;3.40;;;21.70;95.00;;;;;;5011389;28;20089;-83
2022/05/09 10:51:28;;;;;;;3.53;3.22;;;21.80;95.70;;;;;;5011359;28;20117;-81
2022/05/09 10:54:18;;;;;;;4.20;3.80;;;22.00;94.80;;;;;;5011356;28;20022;-81
2022/05/09 10:56:51;;;;;;;6.13;3.90;;;22.20;93.80;;;;;;4993714;28;20033;-81
2022/05/09 10:59:24;;;;;;;5.88;3.92;;;22.20;93.60;;;;;;5011616;28;20088;-80
2022/05/09 11:02:00;;;;;;;5.40;4.55;;;22.30;93.70;;;;;;5011371;28;20038;-81
2022/05/09 11:04:29;;;;;;;5.70;4.55;;;22.40;94.50;;;;;;5010175;28;20467;-81
2022/05/09 11:07:13;;;;;;;4.95;4.20;;;22.40;94.60;;;;;;5010206;28;20026;-81
2022/05/09 11:10:17;;;;;;;6.38;4.38;;;22.40;95.30;;;;;;5009919;28;20442;-81
2022/05/09 11:12:46;;;;;;;7.85;4.30;;;22.40;95.60;;;;;;5010970;28;20053;-81
2022/05/09 11:15:29;;;;;;;9.45;4.00;;;22.40;93.90;;;;;;5011176;28;20037;-81
2022/05/09 11:18:14;;;;;;;4.50;4.07;;;22.20;93.80;;;;;;5009890;28;20069;-81
2022/05/09 11:21:06;;;;;;;4.30;4.00;;;22.30;93.90;;;;;;5011405;28;20483;-80
2022/05/09 11:23:46;;;;;;;8.50;4.35;;;22.50;93.20;;;;;;5011101;28;20030;-81
2022/05/09 11:26:30;;;;;;;8.63;4.15;;;22.50;91.70;;;;;;5011169;28;20154;-81
2022/05/09 11:28:58;;;;;;;8.60;4.07;;;22.60;91.50;;;;;;5014115;28;20033;-81
2022/05/09 11:31:39;;;;;;;5.60;3.60;;;22.50;92.20;;;;;;5013870;28;20030;-81
2022/05/09 11:34:37;;;;;;;4.47;4.07;;;22.50;93.40;;;;;;5014762;28;20026;-81
2022/05/09 11:37:34;;;;;;;5.63;4.43;;;22.80;95.20;;;;;;4973413;28;20036;-81
2022/05/09 11:40:16;;;;;;;4.25;3.95;;;23.20;91.60;;;;;;5013517;28;20413;-81
2022/05/09 11:46:24;;;;;;;6.27;4.40;;;23.40;92.50;;;;;;5014784;28;20126;-81
2022/05/09 11:49:08;;;;;;;7.13;3.90;;;23.50;91.30;;;;;;5014624;28;20026;-81
2022/05/09 11:51:53;;;;;;;5.70;4.85;;;23.60;90.00;;;;;;5013409;28;20037;-81
2022/05/09 11:54:35;;;;;;;4.63;4.32;;;23.70;88.50;;;;;;5014631;28;20026;-82
2022/05/09 11:57:03;;;;;;;;;;;23.70;87.50;;;;;;5015006;28;20057;-81
2022/05/09 11:59:32;;;;;;;6.90;4.35;;;23.80;89.40;;;;;;5013297;28;20333;-82
2022/05/09 12:02:05;;;;;;;4.25;3.83;;;24.00;90.10;;;;;;5014748;28;20109;-82
2022/05/09 12:04:48;;;;;;;7.72;4.47;;;24.20;88.10;;;;;;5014341;28;20030;-81
2022/05/09 12:07:26;;;;;;;4.85;4.10;;;24.40;88.20;;;;;;5014359;28;20306;-82
2022/05/09 12:09:58;;;;;;;8.32;4.38;;;24.40;86.90;;;;;;5014293;28;20048;-82
2022/05/09 12:12:41;;;;;;;7.30;4.93;;;24.50;88.10;;;;;;5014053;28;20155;-81
2022/05/09 12:15:29;;;;;;;4.40;3.92;;;24.50;85.80;;;;;;5012915;28;20133;-82
2022/05/09 12:17:54;;;;;;;5.80;4.60;;;24.60;84.90;;;;;;5003558;28;20088;-82
2022/05/09 12:20:29;;;;;;;6.28;4.70;;;24.80;83.60;;;;;;5014328;28;20482;-82
2022/05/09 12:23:05;;;;;;;4.88;4.43;;;24.90;86.20;;;;;;5014025;28;20037;-82
2022/05/09 12:25:37;;;;;;;5.90;4.50;;;25.00;86.50;;;;;;5012816;28;20034;-83
2022/05/09 12:28:21;;;;;;;6.60;4.38;;;25.00;83.30;;;;;;5012944;28;20508;-82
2022/05/09 12:30:59;;;;;;;6.15;4.78;;;25.10;83.20;;;;;;5013899;28;20033;-82
2022/05/09 12:33:36;;;;;;;5.53;4.70;;;25.30;81.40;;;;;;5013963;28;20025;-82
2022/05/09 12:36:16;;;;;;;6.25;4.47;;;25.50;87.40;;;;;;5013640;28;20453;-82
2022/05/09 12:38:45;;;;;;;6.05;4.72;;;25.80;89.00;;;;;;5011446;28;20030;-82
2022/05/09 12:41:24;;;;;;;4.97;4.53;;;26.00;85.30;;;;;;5013217;28;20339;-83
2022/05/09 12:43:57;;;;;;;6.18;4.57;;;25.90;80.70;;;;;;5013551;28;20077;-82
2022/05/09 12:46:36;;;;;;;6.72;4.15;;;25.80;80.30;;;;;;4996120;28;20109;-82
2022/05/09 12:49:06;;;;;;;4.55;4.15;;;25.70;81.30;;;;;;4994149;28;20061;-82
2022/05/09 12:51:39;;;;;;;4.95;3.70;;;25.40;82.00;;;;;;4992651;28;20081;-82
2022/05/09 12:54:10;;;;;;;6.32;4.32;;;25.10;84.70;;;;;;4994140;28;20019;-82
2022/05/09 12:56:37;;;;;;;6.77;3.83;;;24.80;86.30;;;;;;4993952;28;20032;-82
2022/05/09 12:59:11;;;;;;;4.40;3.90;;;24.60;84.60;;;;;;4992483;28;20261;-82
2022/05/09 13:01:43;;;;;;;5.30;4.10;;;24.40;84.20;;;;;;4993575;28;20022;-81
2022/05/09 13:04:44;;;;;;;7.65;4.00;;;24.20;84.50;;;;;;4995658;28;20037;-81
2022/05/09 13:07:11;;;;;;;4.13;3.72;;;23.90;85.30;;;;;;4981713;28;20035;-81
2022/05/09 13:09:50;;;;;;;4.38;3.95;;;23.70;87.60;;;;;;4995454;28;20026;-82
2022/05/09 13:12:32;;;;;;;11.45;3.78;;;23.50;89.30;;;;;;4993751;28;20048;-81
2022/05/09 13:15:13;;;;;;;6.60;3.80;;;23.30;90.50;;;;;;4995161;28;20030;-81
2022/05/09 13:17:48;;;;;;;4.70;3.63;;;23.00;90.40;;;;;;4995462;28;20480;-81
2022/05/09 13:20:20;;;;;;;7.03;3.05;;;22.90;90.40;;;;;;4995398;28;20026;-82
2022/05/09 13:22:55;;;;;;;5.28;3.45;;;22.90;90.80;;;;;;4994995;28;20018;-82
2022/05/09 13:25:30;;;;;;;4.63;3.60;;;22.80;90.30;;;;;;4995123;28;20034;-81
2022/05/09 13:28:00;;;;;;;6.47;3.70;;;22.70;89.20;;;;;;4995051;28;20105;-81
2022/05/09 13:30:25;;;;;;;5.32;3.80;;;22.60;90.10;;;;;;4994979;28;20030;-81
2022/05/09 13:32:53;;;;;;;6.00;4.20;;;22.50;92.10;;;;;;4994824;28;20022;-81
2022/05/09 13:35:27;;;;;;;3.53;3.33;;;22.20;93.90;;;;;;4994964;28;20077;-80
2022/05/09 13:37:53;;;;;;;5.15;3.13;;;22.00;95.20;;;;;;4995011;28;20030;-81
2022/05/09 13:40:21;;;;;;;5.32;3.97;;;22.10;95.00;;;;;;4994903;28;20022;-81
2022/05/09 13:42:49;;;;;;;7.38;3.22;;;22.20;95.50;;;;;;4993490;28;20034;-81
2022/05/09 13:45:22;;;;;;;9.43;3.83;;;22.30;95.10;;;;;;4994673;28;20022;-81
2022/05/09 13:47:55;;;;;;;7.22;3.85;;;22.30;94.30;;;;;;4977342;28;20030;-81
2022/05/09 13:50:35;;;;;;;8.77;3.33;;;22.30;94.40;;;;;;4994697;28;20388;-80
2022/05/09 13:53:29;;;;;;;5.45;3.70;;;22.20;94.20;;;;;;4994409;28;20039;-81
2022/05/09 13:56:00;;;;;;;4.57;3.38;;;22.20;94.70;;;;;;4992088;28;20038;-80
2022/05/09 13:58:30;;;;;;;6.73;3.83;;;22.10;95.00;;;;;;4994597;28;20038;-80
2022/05/09 14:00:57;;;;;;;5.60;3.50;;;22.20;95.10;;;;;;4993176;28;20284;-81
2022/05/09 14:03:39;;;;;;;7.75;3.63;;;22.20;95.20;;;;;;4992790;28;20088;-81
2022/05/09 14:06:11;;;;;;;12.82;4.07;;;22.10;94.70;;;;;;4994594;28;20030;-80
2022/05/09 14:08:38;;;;;;;5.57;3.70;;;22.10;94.90;;;;;;4994538;28;20029;-81
2022/05/09 14:11:11;;;;;;;6.07;4.35;;;22.10;95.00;;;;;;4994374;28;20061;-81
2022/05/09 14:13:41;;;;;;;4.22;3.80;;;22.00;95.10;;;;;;4994154;28;20448;-81
2022/05/09 14:16:07;;;;;;;9.93;3.70;;;22.00;95.80;;;;;;4994371;28;20472;-81
2022/05/09 14:18:39;;;;;;;5.45;3.78;;;22.10;96.30;;;;;;4994102;28;20073;-80
2022/05/09 14:21:14;;;;;;;6.30;3.70;;;22.30;95.80;;;;;;4994246;28;20113;-81
2022/05/09 14:23:45;;;;;;;7.85;4.53;;;22.50;95.30;;;;;;4992789;28;20022;-81
2022/05/09 14:32:02;;;;;;;5.43;3.70;;;23.80;92.80;;;;;;4993730;28;20037;-81
2022/05/09 14:34:28;;;;;;;7.28;4.55;;;23.70;91.40;;;;;;4992897;28;20724;-81
2022/05/09 14:37:27;;;;;;;10.27;4.72;;;23.80;90.40;;;;;;4994155;28;20046;-81
2022/05/09 14:40:05;;;;;;;4.45;4.05;;;24.00;91.40;;;;;;4994017;28;20030;-82
2022/05/09 14:42:33;;;;;;;8.93;4.70;;;24.00;91.70;;;;;;4992272;28;20030;-81
2022/05/09 14:45:10;;;;;;;6.35;4.50;;;23.90;92.00;;;;;;4993849;28;20032;-82
2022/05/09 14:47:39;;;;;;;5.25;4.75;;;23.80;91.80;;;;;;4992726;28;20041;-81
2022/05/09 14:50:10;;;;;;;5.18;4.63;;;23.70;90.90;;;;;;4993882;28;20031;-81
2022/05/09 14:52:42;;;;;;;;;;;23.70;88.10;;;;;;4993050;28;20033;-74
2022/05/09 14:58:17;;;;;;;9.15;4.72;;;23.50;93.20;;;;;;4991942;28;20037;-74
2022/05/09 15:00:50;;;;;;;5.22;4.57;;;23.60;94.00;;;;;;4991786;28;20472;-74
2022/05/09 15:03:20;;;;;;;4.85;4.38;;;23.80;93.10;;;;;;4989802;28;20038;-74
2022/05/09 15:05:48;;;;;;;7.38;4.30;;;23.90;93.70;;;;;;4991662;28;20026;-74
2022/05/09 15:08:14;;;;;;;12.00;4.70;;;23.80;93.30;;;;;;4992674;28;20026;-74
2022/05/09 15:10:41;;;;;;;6.93;4.25;;;23.60;93.60;;;;;;4992375;28;20030;-74
2022/05/09 15:13:11;;;;;;;5.28;4.30;;;23.50;93.10;;;;;;4990658;28;21065;-74
2022/05/09 15:15:51;;;;;;;8.70;5.35;;;23.30;93.30;;;;;;4990785;28;20022;-81
2022/05/09 15:18:18;;;;;;;13.00;6.63;;;23.00;94.50;;;;;;4991068;28;20054;-82
2022/05/09 15:20:44;;;;;;;6.60;5.32;;;22.50;94.20;;;;;;4992464;28;20033;-81
2022/05/09 15:23:10;;;;;;;4.57;4.18;;;22.20;94.10;;;;;;4975031;28;20019;-81
2022/05/09 15:25:38;;;;;;;6.07;5.47;;;22.00;93.90;;;;;;4992359;28;20042;-80
2022/05/09 15:28:05;;;;;;;13.68;5.38;;;21.80;94.90;;;;;;4973711;28;20527;-80
2022/05/09 15:30:31;;;;;;;7.53;5.03;;;21.70;95.70;;;;;;4990081;28;20050;-80
2022/05/09 15:32:57;;;;;;;10.50;5.70;;;21.70;96.40;;;;;;4991477;28;20033;-81
2022/05/09 15:35:24;;;;;;;9.00;4.78;;;21.60;96.70;;;;;;4991507;28;20101;-80
2022/05/09 15:37:50;;;;;;;5.97;4.53;;;21.50;97.30;;;;;;4991146;28;20022;-80
2022/05/09 15:40:16;;;;;;;9.05;4.88;;;21.40;96.40;;;;;;4990175;28;20030;-81
2022/05/09 15:42:46;;;;;;;5.32;4.25;;;21.30;96.40;;;;;;4991228;28;20526;-80
2022/05/09 15:45:17;;;;;;;8.15;3.88;;;21.20;96.50;;;;;;4991377;28;20029;-80
2022/05/09 15:47:45;;;;;;;5.20;3.67;;;21.10;95.60;;;;;;4992193;28;20536;-80
2022/05/09 15:50:16;;;;;;;5.72;3.60;;;20.90;95.10;;;;;;4991820;28;20031;-81
2022/05/09 15:52:43;;;;;;;3.67;3.33;;;20.80;95.50;;;;;;4991726;28;20473;-81
2022/05/09 15:55:10;;;;;;;7.10;3.25;;;20.80;96.70;;;;;;4992863;28;20019;-80
2022/05/09 15:57:36;;;;;;;4.20;3.80;;;20.70;95.70;;;;;;4993153;28;20088;-81
2022/05/09 16:00:06;;;;;;;6.78;3.70;;;20.60;96.10;;;;;;4991326;28;20029;-81
2022/05/09 16:02:33;;;;;;;6.05;3.65;;;20.60;96.30;;;;;;4989748;28;20030;-80
2022/05/09 16:04:58;;;;;;;4.88;3.75;;;20.50;96.70;;;;;;4989913;28;20030;-80
2022/05/09 16:12:56;;;;;;;4.32;3.92;;;20.30;99.90;;;;;;4991003;28;20085;-81
2022/05/09 16:15:25;;;;;;;4.13;3.83;;;20.00;99.90;;;;;;4991651;28;20073;-80
2022/05/09 16:18:19;;;;;;;9.18;4.22;;;20.00;99.90;;;;;;4993413;28;20440;-81
2022/05/09 16:20:45;;;;;;;6.18;3.85;;;19.90;99.90;;;;;;4994682;28;20030;-81
2022/05/09 16:23:11;;;;;;;5.15;4.28;;;19.90;99.90;;;;;;4994374;28;20688;-79
2022/05/09 16:25:37;;;;;;;5.15;4.47;;;19.80;99.90;;;;;;4994664;28;20092;-80
2022/05/09 16:28:03;;;;;;;6.55;4.72;;;19.80;99.90;;;;;;4993160;28;20037;-81
2022/05/09 16:30:38;;;;;;;6.10;4.47;;;19.80;99.90;;;;;;4994444;28;20109;-80
2022/05/09 16:33:05;;;;;;;6.88;4.72;;;19.80;99.90;;;;;;4994570;28;20022;-83
2022/05/09 16:35:32;;;;;;;29.65;7.45;;;19.90;99.90;;;;;;4994303;28;20325;-83
2022/05/09 16:37:58;;;;;;;24.77;7.10;;;19.90;99.90;;;;;;4994266;28;20026;-80
2022/05/09 16:40:33;;;;;;;6.05;4.28;;;19.90;99.90;;;;;;4994346;28;20053;-81
2022/05/09 16:42:59;;;;;;;6.35;4.22;;;19.80;99.90;;;;;;4996609;28;20025;-81
2022/05/09 16:45:26;;;;;;;6.85;4.65;;;19.70;99.90;;;;;;4994195;28;20034;-80
2022/05/09 16:47:52;;;;;;;5.10;4.63;;;19.70;99.90;;;;;;4995350;28;20404;-81
2022/05/09 16:50:24;;;;;;;4.25;3.88;;;19.70;99.90;;;;;;4995999;28;20415;-81
2022/05/09 16:52:50;;;;;;;7.63;4.80;;;19.80;99.90;;;;;;4995842;28;20112;-79
2022/05/09 16:55:17;;;;;;;3.88;3.67;;;19.90;99.90;;;;;;4995921;28;20070;-80
2022/05/09 16:57:43;;;;;;;7.15;5.10;;;20.20;99.90;;;;;;4996568;28;20010;-80
2022/05/09 17:00:12;;;;;;;4.75;4.25;;;20.50;99.90;;;;;;4995302;28;20062;-81
2022/05/09 17:02:38;;;;;;;4.38;4.07;;;20.50;99.90;;;;;;4992910;28;20057;-79
2022/05/09 17:05:05;;;;;;;7.22;4.65;;;20.40;99.90;;;;;;4992462;28;20046;-80
2022/05/09 17:07:30;;;;;;;4.47;4.03;;;20.30;99.90;;;;;;4991002;28;20077;-80
2022/05/09 17:10:00;;;;;;;9.15;4.30;;;20.30;99.90;;;;;;4992091;28;20034;-80
2022/05/09 17:12:30;;;;;;;6.50;5.00;;;20.30;99.90;;;;;;4992653;28;20046;-79
2022/05/09 17:14:56;;;;;;;7.90;4.80;;;20.20;99.90;;;;;;4993334;28;20057;-80
2022/05/09 17:17:34;;;;;;;8.98;4.65;;;20.30;99.90;;;;;;4992446;28;20376;-80
2022/05/09 17:20:00;;;;;;;6.63;5.80;;;20.50;99.90;;;;;;4992146;28;20547;-80
2022/05/09 17:22:26;;;;;;;5.82;4.13;;;20.60;99.90;;;;;;4994135;28;20026;-80
2022/05/09 17:24:52;;;;;;;4.70;4.30;;;20.60;99.90;;;;;;4977906;28;20019;-80
2022/05/09 17:27:27;;;;;;;4.97;4.55;;;20.70;99.90;;;;;;4994692;28;20045;-80
2022/05/09 17:29:53;;;;;;;7.60;4.82;;;20.70;99.90;;;;;;4993639;28;20022;-74
2022/05/09 17:32:21;;;;;;;5.25;4.82;;;20.80;99.90;;;;;;4993180;28;20022;-74
2022/05/09 17:34:47;;;;;;;5.35;4.95;;;20.70;99.90;;;;;;4995292;28;20031;-74
2022/05/09 17:37:18;;;;;;;8.98;4.38;;;20.60;99.90;;;;;;5011114;28;20032;-75
2022/05/09 17:39:48;;;;;;;8.52;5.25;;;20.40;99.90;;;;;;5013025;28;20041;-80
2022/05/09 17:42:17;;;;;;;8.30;5.25;;;20.30;99.90;;;;;;5012965;28;20435;-81
2022/05/09 17:44:43;;;;;;;6.05;4.30;;;20.20;99.90;;;;;;5012854;28;20040;-80
2022/05/09 17:47:10;;;;;;;12.50;5.43;;;20.10;99.90;;;;;;5012172;28;20022;-80
2022/05/09 17:49:37;;;;;;;7.00;5.32;;;19.90;99.90;;;;;;4993890;28;20042;-81
2022/05/09 17:52:03;;;;;;;5.65;5.15;;;19.80;99.90;;;;;;5012373;28;20017;-74
2022/05/09 17:54:29;;;;;;;7.95;5.10;;;19.70;99.90;;;;;;4994458;28;20022;-74
2022/05/09 17:57:01;;;;;;;6.57;5.68;;;19.70;99.90;;;;;;5011977;28;20108;-74
2022/05/09 17:59:31;;;;;;;7.13;5.53;;;19.60;99.90;;;;;;4994277;28;20030;-74
2022/05/09 18:02:02;;;;;;;9.52;5.25;;;19.50;99.90;;;;;;4994091;28;20519;-74
2022/05/09 18:04:29;;;;;;;8.40;5.78;;;19.30;99.90;;;;;;5012339;28;20018;-74
2022/05/09 18:06:55;;;;;;;6.50;5.90;;;19.30;99.90;;;;;;5010772;28;20018;-74
2022/05/09 18:09:21;;;;;;;6.30;5.57;;;19.20;99.90;;;;;;5010991;28;20021;-74
2022/05/09 18:11:54;;;;;;;12.77;5.65;;;19.10;99.90;;;;;;5010836;28;20162;-74
2022/05/09 18:14:23;;;;;;;9.82;6.45;;;19.00;99.90;;;;;;5010685;28;20033;-74
2022/05/09 18:17:07;;;;;;;11.20;6.20;;;18.90;99.90;;;;;;5012089;28;20029;-74
2022/05/09 18:19:33;;;;;;;9.93;6.43;;;18.90;99.90;;;;;;5012286;28;20492;-76
2022/05/09 18:22:00;;;;;;;8.43;6.32;;;18.90;99.90;;;;;;5012803;28;20030;-76
2022/05/09 18:24:31;;;;;;;6.65;5.90;;;18.90;99.90;;;;;;5012064;28;20490;-76
2022/05/09 18:26:59;;;;;;;6.68;5.97;;;18.90;99.90;;;;;;4994553;28;20029;-76
2022/05/09 18:29:30;;;;;;;11.35;6.18;;;18.90;99.90;;;;;;5011808;28;20437;-76
2022/05/09 18:31:57;;;;;;;10.00;6.82;;;18.90;99.90;;;;;;5011951;28;20099;-74
2022/05/09 18:34:29;;;;;;;8.38;6.65;;;18.80;99.90;;;;;;5011468;28;20531;-74
2022/05/09 18:37:13;;;;;;;8.55;6.80;;;18.80;99.90;;;;;;4993719;28;20032;-74
2022/05/09 18:39:47;;;;;;;10.70;7.07;;;18.70;99.90;;;;;;5012976;28;20048;-74
2022/05/09 18:42:16;;;;;;;8.52;5.28;;;18.60;99.90;;;;;;4995121;28;20045;-74
2022/05/09 18:44:42;;;;;;;7.15;6.40;;;18.60;99.90;;;;;;4994906;28;20115;-74
2022/05/09 18:47:08;;;;;;;6.05;5.55;;;18.50;99.90;;;;;;4992474;28;20053;-74
2022/05/09 18:52:37;;;;;;;8.80;5.95;;;18.40;99.90;;;;;;4965380;28;20476;-74
2022/05/09 18:55:10;;;;;;;9.85;6.10;;;18.40;99.90;;;;;;4993113;28;20022;-74
2022/05/09 18:57:39;;;;;;;6.78;5.63;;;18.30;99.90;;;;;;4993069;28;20476;-74
2022/05/09 19:00:19;;;;;;;10.52;6.07;;;18.30;99.90;;;;;;4993062;28;20030;-74
2022/05/09 19:02:46;;;;;;;9.02;6.00;;;18.20;99.90;;;;;;4992907;28;20113;-73
2022/05/09 19:05:13;;;;;;;7.20;6.00;;;18.10;99.90;;;;;;4991339;28;20038;-74
2022/05/09 19:07:42;;;;;;;6.43;5.90;;;18.10;99.90;;;;;;4992864;28;20142;-74
2022/05/09 19:10:18;;;;;;;8.48;6.47;;;18.00;99.90;;;;;;4992883;28;20033;-76
2022/05/09 19:12:44;;;;;;;10.43;6.00;;;18.00;99.90;;;;;;4992544;28;20407;-77
2022/05/09 19:15:11;;;;;;;10.20;7.10;;;17.80;99.90;;;;;;4991689;28;20027;-76
2022/05/09 19:17:37;;;;;;;10.45;7.63;;;17.80;99.90;;;;;;4991721;28;20053;-76
2022/05/09 19:20:05;;;;;;;7.65;6.45;;;17.70;99.90;;;;;;4992737;28;20487;-76
2022/05/09 19:22:32;;;;;;;6.47;5.85;;;17.70;99.90;;;;;;4992748;28;20025;-76
2022/05/09 19:24:58;;;;;;;9.77;6.28;;;17.60;99.90;;;;;;4992178;28;20472;-76
2022/05/09 19:27:25;;;;;;;6.85;5.85;;;17.60;99.90;;;;;;4991496;28;20061;-76
2022/05/09 19:29:56;;;;;;;6.90;6.05;;;17.60;99.90;;;;;;4991323;28;20033;-76
2022/05/09 19:32:29;;;;;;;10.98;6.05;;;17.60;99.90;;;;;;4992842;28;20061;-76
2022/05/09 19:34:56;;;;;;;8.20;5.68;;;17.50;99.90;;;;;;4992224;28;20034;-76
2022/05/09 19:37:21;;;;;;;7.43;6.53;;;17.50;99.90;;;;;;4992808;28;20053;-76
2022/05/09 19:39:47;;;;;;;10.07;6.28;;;17.40;99.90;;;;;;5000238;28;20368;-77
2022/05/09 19:42:14;;;;;;;10.85;6.45;;;17.40;99.90;;;;;;5000121;28;20038;-76
2022/05/09 19:44:45;;;;;;;8.38;6.20;;;17.30;99.90;;;;;;4989633;28;20535;-76
2022/05/09 19:47:15;;;;;;;6.80;5.88;;;17.30;99.90;;;;;;4985262;28;20041;-76
2022/05/09 19:49:48;;;;;;;6.78;5.78;;;17.30;99.90;;;;;;4990153;28;20022;-76
2022/05/09 19:55:01;;;;;;;9.98;5.47;;;17.30;99.90;;;;;;4991892;28;20081;-76
2022/05/09 19:57:27;;;;;;;7.85;5.70;;;17.30;99.90;;;;;;4991296;28;20026;-76
2022/05/09 19:59:53;;;;;;;7.97;5.82;;;17.30;99.90;;;;;;4991310;28;20034;-76
2022/05/09 20:02:25;;;;;;;6.88;5.35;;;17.20;99.90;;;;;;4990828;28;20110;-76
2022/05/09 20:04:54;;;;;;;5.50;4.97;;;17.20;99.90;;;;;;4991069;28;20555;-76
2022/05/09 20:07:23;;;;;;;10.27;5.72;;;17.20;99.90;;;;;;4991063;28;20076;-76
2022/05/09 20:09:49;;;;;;;7.78;5.38;;;17.20;99.90;;;;;;4992211;28;20042;-76
2022/05/09 20:12:20;;;;;;;6.95;5.72;;;17.20;99.90;;;;;;4994320;28;20030;-80
2022/05/09 20:14:46;;;;;;;6.03;5.13;;;17.10;99.90;;;;;;5013394;28;20054;-81
2022/05/09 20:17:12;;;;;;;8.57;5.65;;;17.10;99.90;;;;;;5013324;28;20383;-81
2022/05/09 20:19:41;;;;;;;8.77;6.20;;;17.10;99.90;;;;;;5013728;28;20044;-81
2022/05/09 20:22:08;;;;;;;9.05;6.70;;;17.10;99.90;;;;;;5003142;28;20487;-81
2022/05/09 20:24:37;;;;;;;12.10;5.40;;;17.00;99.90;;;;;;4984784;28;20479;-81
2022/05/09 20:30:01;;;;;;;10.20;6.05;;;16.90;99.90;;;;;;4993370;28;20036;-81
2022/05/09 20:32:32;;;;;;;14.80;5.85;;;16.80;99.90;;;;;;5012537;28;20487;-81
2022/05/09 20:34:59;;;;;;;7.78;5.38;;;16.80;99.90;;;;;;4997099;28;20626;-81
2022/05/09 20:37:26;;;;;;;10.00;5.85;;;16.70;99.90;;;;;;5014722;28;20395;-80
2022/05/09 20:39:52;;;;;;;8.32;6.07;;;16.70;99.90;;;;;;5005690;28;20120;-76
2022/05/09 20:42:22;;;;;;;8.50;5.80;;;16.70;99.90;;;;;;5005449;28;20097;-76
2022/05/09 20:44:49;;;;;;;5.82;5.32;;;16.70;99.90;;;;;;5009539;28;20121;-76
2022/05/09 20:47:15;;;;;;;10.65;6.25;;;16.70;99.90;;;;;;5010728;28;20414;-76
2022/05/09 20:49:41;;;;;;;7.10;6.38;;;16.60;99.90;;;;;;5013928;28;20030;-76
2022/05/09 20:52:08;;;;;;;8.38;6.25;;;16.60;99.90;;;;;;5005427;28;20368;-75